Aviation Digital Data Service (ADDS)

Output produced by METARs form (1048 UTC 24 April 2018)
found at http://aviationweather.gov/adds/metars/
 
KRUT 240531Z 2406/2506 13009KT P6SM SKC 
     FM241700 20010KT P6SM SCT200 
     FM250400 14007KT P6SM VCSH OVC060